Hyundai Republic — A8IL3 — position and weather

sailwx.info

Track history (hours):
 
Tides and Currents Weather Stations Pressure Air Temp Water Temp Dewpoint Dewpoint Depression Visibility Wind Speed Wind Dir Waves Ship Positions

Hyundai Republic

Last reported at 2014-Sep-08 07:33 UTC. Time now 2014-Sep-23 02:24 UTC.
Position N 36°21' E 014°31'.
Warning: this ship's position is 14 days out of date.

Length 305 m; draft 11.4 m.

Type: Ship (hazmat cat A). MMSI: 636090994.

Date/timePositionNaut miles runAvg speedWind from/ knotsBaromVisibWave heightAir tempDewpointWater temp
2014-Sep-08 07:33N 36°21' E 014°31'1817.6
2014-Sep-08 06:33N 36°27' E 014°10'1818.0
2014-Sep-08 05:33N 36°32' E 013°49'2118.4
2014-Sep-08 04:24N 36°39' E 013°24'1517.5
2014-Sep-08 03:33N 36°43' E 013°06'1717.2
2014-Sep-08 02:33N 36°48' E 012°45'5917.1
2014-Sep-07 23:06N 37°10' E 011°37'1117.5
2014-Sep-07 22:30N 37°15' E 011°25'1617.4
2014-Sep-07 21:33N 37°23' E 011°07'1717.4
2014-Sep-07 20:33N 37°27' E 010°46'1817.6
2014-Sep-07 19:33N 37°32' E 010°24'1817.5
2014-Sep-07 18:33N 37°33' E 010°02'1817.6
2014-Sep-07 17:33N 37°28' E 009°41'1717.4
2014-Sep-07 16:33N 37°23' E 009°20'1716.9
2014-Sep-07 15:32N 37°20' E 008°59'1717.4
2014-Sep-07 14:33N 37°20' E 008°37'1615.9
2014-Sep-07 13:33N 37°19' E 008°17'1716.7
2014-Sep-07 12:32N 37°18' E 007°56'1918.3
2014-Sep-07 11:30N 37°17' E 007°32'4213.5
2014-Sep-07 08:25N 37°15' E 006°40'2913.7
2014-Sep-07 06:20N 37°13' E 006°04'1113.5
2014-Sep-07 05:33N 37°12' E 005°51'1313.4
2014-Sep-07 04:33N 37°12' E 005°34'1513.8
2014-Sep-07 03:27N 37°11' E 005°15'1213.8
2014-Sep-07 02:33N 37°10' E 004°59'1413.9
2014-Sep-07 01:33N 37°09' E 004°42'1413.9
2014-Sep-07 00:33N 37°09' E 004°25'1514.0
2014-Sep-06 23:30N 37°08' E 004°06'1313.8
2014-Sep-06 22:33N 37°06' E 003°50'1413.6
2014-Sep-06 21:33N 37°04' E 003°33'1313.2
2014-Sep-06 20:34N 37°01' E 003°17'1414.2
2014-Sep-06 19:33N 36°58' E 002°60'1414.4
2014-Sep-06 18:34N 36°56' E 002°42'1514.6
2014-Sep-06 17:31N 36°53' E 002°23'2014.3
2014-Sep-06 16:07N 36°49' E 001°59'1 1.8
2014-Sep-06 15:20N 36°48' E 001°57'2 2.9
2014-Sep-06 14:33N 36°48' E 001°54'13916.4
2014-Sep-06 06:04N 36°12' W 000°53'21314.2
2014-Sep-05 15:04N 35°59' W 005°17'1119.7
2014-Sep-05 14:30N 35°56' W 005°30'19 1.0
2014-Sep-04 18:17N 35°53' W 005°53'34 9.1
2014-Sep-04 14:30N 35°50' W 006°35'1411.4
2014-Sep-04 13:16N 35°49' W 006°52'7011.8
2014-Sep-04 07:19N 35°40' W 008°18'1113.4
2014-Sep-04 06:30N 35°38' W 008°31'1213.2
2014-Sep-04 05:33N 35°37' W 008°47'  
Track history (hours):
 
Tides and Currents Weather Stations Pressure Air Temp Water Temp Dewpoint Dewpoint Depression Visibility Wind Speed Wind Dir Waves Ship Positions

Hyundai Republic

Last reported at 2014-Sep-08 07:33 UTC. Time now 2014-Sep-23 02:24 UTC.
Position N 36°21' E 014°31'.
Warning: this ship's position is 14 days out of date.

Length 305 m; draft 11.4 m.

Type: Ship (hazmat cat A). MMSI: 636090994.

Date/timePositionNaut miles runAvg speedWind from/ knotsBaromVisibWave heightAir tempDewpointWater temp
2014-Sep-08 07:33N 36°21' E 014°31'1817.6
2014-Sep-08 06:33N 36°27' E 014°10'1818.0
2014-Sep-08 05:33N 36°32' E 013°49'2118.4
2014-Sep-08 04:24N 36°39' E 013°24'1517.5
2014-Sep-08 03:33N 36°43' E 013°06'1717.2
2014-Sep-08 02:33N 36°48' E 012°45'5917.1
2014-Sep-07 23:06N 37°10' E 011°37'1117.5
2014-Sep-07 22:30N 37°15' E 011°25'1617.4
2014-Sep-07 21:33N 37°23' E 011°07'1717.4
2014-Sep-07 20:33N 37°27' E 010°46'1817.6
2014-Sep-07 19:33N 37°32' E 010°24'1817.5
2014-Sep-07 18:33N 37°33' E 010°02'1817.6
2014-Sep-07 17:33N 37°28' E 009°41'1717.4
2014-Sep-07 16:33N 37°23' E 009°20'1716.9
2014-Sep-07 15:32N 37°20' E 008°59'1717.4
2014-Sep-07 14:33N 37°20' E 008°37'1615.9
2014-Sep-07 13:33N 37°19' E 008°17'1716.7
2014-Sep-07 12:32N 37°18' E 007°56'1918.3
2014-Sep-07 11:30N 37°17' E 007°32'4213.5
2014-Sep-07 08:25N 37°15' E 006°40'2913.7
2014-Sep-07 06:20N 37°13' E 006°04'1113.5
2014-Sep-07 05:33N 37°12' E 005°51'1313.4
2014-Sep-07 04:33N 37°12' E 005°34'1513.8
2014-Sep-07 03:27N 37°11' E 005°15'1213.8
2014-Sep-07 02:33N 37°10' E 004°59'1413.9
2014-Sep-07 01:33N 37°09' E 004°42'1413.9
2014-Sep-07 00:33N 37°09' E 004°25'1514.0
2014-Sep-06 23:30N 37°08' E 004°06'1313.8
2014-Sep-06 22:33N 37°06' E 003°50'1413.6
2014-Sep-06 21:33N 37°04' E 003°33'1313.2
2014-Sep-06 20:34N 37°01' E 003°17'1414.2
2014-Sep-06 19:33N 36°58' E 002°60'1414.4
2014-Sep-06 18:34N 36°56' E 002°42'1514.6
2014-Sep-06 17:31N 36°53' E 002°23'2014.3
2014-Sep-06 16:07N 36°49' E 001°59'1 1.8
2014-Sep-06 15:20N 36°48' E 001°57'2 2.9
2014-Sep-06 14:33N 36°48' E 001°54'13916.4
2014-Sep-06 06:04N 36°12' W 000°53'21314.2
2014-Sep-05 15:04N 35°59' W 005°17'1119.7
2014-Sep-05 14:30N 35°56' W 005°30'19 1.0
2014-Sep-04 18:17N 35°53' W 005°53'34 9.1
2014-Sep-04 14:30N 35°50' W 006°35'1411.4
2014-Sep-04 13:16N 35°49' W 006°52'7011.8
2014-Sep-04 07:19N 35°40' W 008°18'1113.4
2014-Sep-04 06:30N 35°38' W 008°31'1213.2
2014-Sep-04 05:33N 35°37' W 008°47'  

Dump ship's entire track history